Portada
METAR-TAF:

METAR-TAF

Aeroports :

Searle Field

Ogallala, Nebraska, Estats Units d'Amèrica

latitud: 41-07-11N, longitud: 101-46-08W, altitud: 999 m

Observació

L'informe es va fer fa 29 minuts, a les 06:15 UTC
Vent calma
Temperatura 20°C
Humitat 83%
Pressió 1021 hPa
Visibilitat: 16.1 km
Cel clar

METAR: KOGA 200615Z AUTO 00000KT 10SM CLR 20/17 A3014 RMK AO2 T01960171

Hora: 00:44 (06:44 UTC)


TAF: manca

Observacions i pronòstics meteorològics de més de 4000 aeroports (METAR i TAF).

Les estacions disponibles són els punts grocs i vermells al mapa.

Posi el ratolí al punt desitjat per veure el nom de l'estació.

Feu clic per veure les observacions i els pronòstics meteorològics.

Per canviar el mapa: feu clic els botons verds amb una creu de color negre per apropar; al botó verd amb un guió per allunyar la imatge; o en les fletxes verdes per a mapes adjacents.


METAR-TAF: